Logo AVAMET
Benvolgut visitant, si us plau, ingressa Recuperar contrasenya

VAERSA Teresa de Cofrents Caroig

Dades diàries. Acumulats / Últims 30 dies disponibles

Data Temperatura (°C) Humitat rel. (%) Pressió rel. (hPa) Vent (km/h) Precipitació
Mínima Mitjana Màxima Amplitud
tèrmica
Mínima Mitjana Màxima Mínima Mitjana Màxima Predom. Mitjana Ràfega
màxima
Total
(mm)
Índex-n
Mínima Mitjana Màxima Mínima Mitjana Màxima n
0 a 1
P0 max
mm 5'
Dades mensuals acumulades fins l'últim dia disponible
08/2019 -17,8 10,2 21,9 22,5 24,8 28,1 33,8 0 60 99 1.005 1.010 1.013   18,3 67,6 0,2
Dades anuals acumulades fins l'últim dia disponible
2019 -17,8 7,3 25,0 12,4 1,6 16,6 33,8 0 64 99 0 1.014 1.033   21,2 125,5 210,8
Últims 30 dies disponibles
11-08-2019 18,1     20,9     24,8 6,7 41 73 96 1.009 1.010 1.011 NO 10,0 35,4 0,0
10-08-2019 21,9     23,5     28,6 6,7 45 72 86 1.010 1.011 1.013 NO 18,1 29,0 0,0
09-08-2019 21,8     23,9     26,4 4,6 28 37 47 1.009 1.009 1.010 N 31,2 57,9 0,0
08-08-2019 -17,8     25,3     32,6 24 40 54 1.008 1.009 1.011 ONO 21,2 53,1 0,0
07-08-2019 21,8     24,8     29,3 7,5 22 33 55 1.005 1.007 1.010 NNO 26,5 67,6 0,0
06-08-2019 20,4     24,9     33,8 13,4 0 53 89 1.006 1.008 1.010 SO 19,3 57,9 0,0
05-08-2019 21,6     24,1     28,6 7,0 33 59 88 1.008 1.009 1.011 O 13,1 40,2 0,0
04-08-2019 20,7     22,3     24,8 4,1 47 63 80 1.010 1.010 1.011 SSO 17,4 43,5 0,0
03-08-2019 18,8     20,9     28,6 9,8 46 64 80 1.009 1.011 1.013 ONO 14,3 32,2 0,0
02-08-2019 -17,8     19,8     26,2 44,0 51 75 88 1.010 1.011 1.012 NNO 13,8 32,2 0,0
01-08-2019 -17,8     16,6     25,8 43,6 0 93 99 1.010 1.012 1.013 N 16,7 35,4 0,2
31-07-2019 -17,8     16,3     19,6 37,4 0 96 99 1.012 1.013 1.014 N 21,0 48,3 0,0
30-07-2019 16,3     19,1     23,4 7,1 55 82 98 1.008 1.010 1.012 N 20,4 38,6 0,0
29-07-2019 18,6     22,2     30,7 12,1 30 55 74 1.006 1.008 1.009 ONO 15,6 45,1 0,0
28-07-2019 13,9     17,0     27,3 13,4 46 71 81 1.005 1.007 1.008 NNO 19,9 51,5 0,0
27-07-2019 16,1     18,1     23,6 7,5 32 43 51 1.002 1.003 1.006 NO 41,3 80,5 0,0
26-07-2019 18,1     21,8     29,9 11,8 36 45 88 1.004 1.007 1.009 OSO 14,1 38,6 0,0
25-07-2019 -17,8     25,7     30,4 30 41 57 1.008 1.010 1.012 S 9,0 40,2 0,0
24-07-2019 22,2     24,1     29,8 7,6 31 38 50 1.011 1.012 1.014 ONO 9,3 38,6 0,0
23-07-2019 20,5     23,0     28,9 8,4 21 45 55 1.013 1.015 1.018 ONO 23,4 45,1 0,0
22-07-2019 18,1     20,0     25,4 7,3 45 62 80 1.017 1.018 1.020 ONO 21,1 37,0 0,0
21-07-2019 18,1     19,8     24,8 6,7 38 63 88 1.015 1.016 1.019 O 21,6 48,3 0,0
19-07-2019 19,3     21,2     27,6 8,3 38 57 78 1.011 1.012 1.013 ONO 13,0 35,4 0,0
17-07-2019 15,7     19,2     26,6 10,9 48 64 97 1.009 1.012 1.013 ONO 9,1 38,6 0,0
16-07-2019 -17,8     20,1     25,3 43,1 0 79 98 1.010 1.011 1.013 OSO 18,6 45,1 0,0
15-07-2019 19,3     22,5     29,6 10,3 31 63 85 0 997 1.013 ONO 16,1 46,7 0,0
14-07-2019 17,8     19,1     30,5 12,7 51 72 92 1.005 1.007 1.009 N 27,0 78,9 0,0
13-07-2019 22,2     26,1     30,5 8,3 23 36 96 1.006 1.009 1.011 SSO 16,1 78,9 0,0
12-07-2019 23,4     26,9     28,4 5,0 28 36 50 1.010 1.011 1.012 SSO 13,2 43,5 0,0
11-07-2019 19,8     20,3     21,2 1,4 50 59 68 1.011 1.012 1.012 N 12,7 22,5 0,0
Últims 13 mesos disponibles
07/2019 12,0 23,4 21,3 19,6 27,0 33,3 33,3 36 60 96 997 1.010 1.018 ONO 17,9 80,5 0,2
06/2019 9,7 25,0 17,7 13,5 22,3 29,9 29,9 26 59 97 1.007 1.012 1.019 SSE 18,7 111,0 0,4
05/2019 3,7 9,5 13,6 13,2 13,6 19,0 24,1 20,4 52 65 89 1.001 1.012 1.022 SSE 14,4 107,8 33,6
04/2019 1,5 5,0 8,7 8,1 6,0 11,6 19,2 17,7 42 81 99 998 1.010 1.018 O 25,8 107,8 174,4
12/2018 1,2 5,9 10,9 8,3 2,5 10,9 18,7 17,5 17 65 93 1.011 1.023 1.030 ONO 31,1 106,2 0,2
11/2018 2,7 5,7 9,9 7,7 4,1 10,2 16,8 14,1 25 84 99 999 1.014 1.022 O 28,0 141,6 69,8
Tots els anys disponibles
Precipitació (mm)
Nota sobre les dades: s'avisa a l'usuari de la provisionalitat i no oficialitat d'aquestes dades
Logo AVAMET blanc
Web allotjada a Sollutia
Llicència de Creative CommonsLa web d'AVAMET i els seus continguts estan subjectes a una llicència de
Reconeixement - No Comercial - Compartir igual
Últimes estacions: Xàbia - Alt de la Granadella (Soci), Villena - Sierra de Salinas (Soci), Sueca - Centre (Inforatge), Xàbia - La Plana (Soci), - - -